Main page
METAR-TAF:

METAR-TAF

Airports :

Nice, France

Nice Côte d'Azur Airport

latitude: 43-39N, longitude: 007-12E, elevation: 4 m

Current weather observation

The report was made 44 minutes ago, at 08:30 UTC
Wind 8 kt from the Northwest
Temperature 12°C
Humidity 58%
Pressure 1019 hPa
Visibility 10 km or more
Few clouds at a height of 10000 ft

METAR: LFMN 260830Z 32008KT 9999 FEW100 12/04 Q1019 BECMG 24010KT

Time: 11:14 (09:14 UTC)

Forecast

The report was made 1 hour and 14 minutes ago, at 08:00 UTC
Forecast valid from 26 at 09 UTC to 27 at 15 UTC
Wind 5 kt from the Southwest
Visibility 10 km or more
no clouds below 1500 m and no cumulonimbus
Becoming
from 26 at 09 UTC to 26 at 11 UTC
Wind 15 kt from the Southwest
Becoming
from 26 at 18 UTC to 26 at 20 UTC
Wind 10 kt from the East

TAF: LFMN 260800Z 2609/2715 22005KT CAVOK BECMG 2609/2611 22015KT BECMG 2618/2620 08010KT

Weather observations and forecasts of more than 4000 airports (METAR and TAF reports).

The available stations are represented by yellow and red dots on the map.

Hover mouse over dot to see the name of the station.

Then click to see weather observations and forecasts.

To change the map : click on the green buttons with a black cross to zoom in, on the green button with a dash to zoom out, or on the green arrows for adjacent maps.


METAR-TAF: